Time;durP1;ratioP1;P1;durP2;ratioP2;P2;SDS_P1;SDS_P2;PMS_P1;PMS_P2;Temp;Humidity;BMP_temperature;BMP_pressure;BME280_temperature;BME280_humidity;BME280_pressure;Samples;Min_cycle;Max_cycle;Signal;HPM_P1;HPM_P2
2022/11/01 06:20:03;;;;;;;;;;;;;;;16.56;84.22;97312.84;4243811;27;10347;-75
2022/11/01 06:22:06;;;;;;;;;;;;;;;16.84;83.62;97321.22;4239222;27;5759;-75
2022/11/01 06:24:10;;;;;;;;;;;;;;;17.06;83.16;97318.16;4239116;27;5719;-74
2022/11/01 06:26:13;;;;;;;;;;;;;;;17.23;82.24;97321.06;4237356;27;6597;-75
2022/11/01 06:28:16;;;;;;;;;;;;;;;17.37;82.08;97318.00;4239102;27;5822;-75
2022/11/01 06:30:19;;;;;;;;;;;;;;;17.49;81.42;97327.97;4244019;27;5601;-76
2022/11/01 06:32:21;;;;;;;;;;;;;;;17.57;81.20;97322.31;4240083;27;5740;-75
2022/11/01 06:34:24;;;;;;;;;;;;;;;17.65;80.84;97330.81;4241969;27;5813;-75
2022/11/01 06:36:28;;;;;;;;;;;;;;;17.71;80.63;97327.28;4242028;27;5612;-75
2022/11/01 06:38:31;;;;;;;;;;;;;;;17.78;80.52;97334.41;4245300;27;6267;-75
2022/11/01 06:40:34;;;;;;;;;;;;;;;17.82;80.19;97341.75;4247638;27;5594;-76
2022/11/01 06:42:37;;;;;;;;;;;;;;;17.86;80.04;97342.94;4246349;27;5597;-75
2022/11/01 06:44:46;;;;;;;;;;;;;;;17.90;80.05;97338.78;4247441;27;5614;-75
2022/11/01 06:46:49;;;;;;;;;;;;;;;17.93;79.78;97343.69;4239411;27;5600;-75
2022/11/01 06:48:52;;;;;;;;;;;;;;;17.97;79.29;97349.38;4240977;27;5605;-75
2022/11/01 06:50:55;;;;;;;;;;;;;;;17.98;79.36;97345.66;4238548;27;5623;-74
2022/11/01 06:53:00;;;;;;;;;;;;;;;18.00;79.46;97360.44;4242438;27;7811;-74
2022/11/01 06:55:03;;;;;;;;;;;;;;;18.03;79.20;97360.00;4239935;27;5080;-74
2022/11/01 06:57:06;;;;;;;;;;;;;;;18.06;78.92;97365.94;4247490;27;5605;-74
2022/11/01 06:59:09;;;;;;;;;;;;;;;18.06;78.88;97374.78;4248926;27;5779;-75
2022/11/01 07:01:12;;;;;;;;;;;;;;;18.07;78.64;97375.59;4248605;27;5749;-73
2022/11/01 07:03:16;;;;;;;;;;;;;;;18.10;78.55;97383.16;4242704;27;5749;-73
2022/11/01 07:05:19;;;;;;;;;;;;;;;18.09;78.23;97393.06;4244769;27;5724;-74
2022/11/01 07:07:23;;;;;;;;;;;;;;;18.11;78.16;97398.16;4227676;27;5759;-73
2022/11/01 07:09:28;;;;;;;;;;;;;;;18.11;78.32;97399.00;4250222;27;6465;-74
2022/11/01 07:11:32;;;;;;;;;;;;;;;18.12;77.80;97407.81;4255781;27;5598;-74
2022/11/01 07:13:37;;;;;;;;;;;;;;;18.12;77.80;97405.16;4255689;27;5598;-74
2022/11/01 07:15:40;;;;;;;;;;;;;;;18.13;77.69;97406.81;4250957;27;5625;-73
2022/11/01 07:17:46;;;;;;;;;;;;;;;18.13;77.58;97409.50;4246744;27;5662;-73
2022/11/01 07:19:50;;;;;;;;;;;;;;;18.12;77.59;97410.50;4247564;27;5601;-73
2022/11/01 07:21:53;;;;;;;;;;;;;;;18.12;77.53;97405.16;4215742;28;5806;-73
2022/11/01 07:23:56;;;;;;;;;;;;;;;18.11;77.33;97412.38;4225157;28;5585;-73
2022/11/01 07:26:02;;;;;;;;;;;;;;;18.11;77.21;97415.03;4235934;27;5582;-73
2022/11/01 07:28:07;;;;;;;;;;;;;;;18.12;77.01;97414.03;4237081;27;5605;-74
2022/11/01 07:30:12;;;;;;;;;;;;;;;18.13;76.90;97414.84;4244444;27;5570;-74
2022/11/01 07:32:15;;;;;;;;;;;;;;;18.12;76.67;97411.34;4244506;27;5586;-74
2022/11/01 07:34:24;;;;;;;;;;;;;;;18.11;76.84;97415.03;4232369;28;6341;-75
2022/11/01 07:36:27;;;;;;;;;;;;;;;18.10;76.48;97413.41;4242012;27;5609;-74
2022/11/01 07:38:31;;;;;;;;;;;;;;;18.09;76.60;97410.97;4239778;27;6873;-74
2022/11/01 07:40:34;;;;;;;;;;;;;;;18.09;76.26;97427.00;4247600;27;5597;-74
2022/11/01 07:42:42;;;;;;;;;;;;;;;18.10;76.15;97424.13;4235542;28;5613;-75
2022/11/01 07:44:45;;;;;;;;;;;;;;;18.10;75.96;97424.13;4242694;27;5589;-75
2022/11/01 07:46:48;;;;;;;;;;;;;;;18.09;75.82;97433.19;4236179;27;5700;-74
2022/11/01 07:48:51;;;;;;;;;;;;;;;18.11;75.79;97435.63;4235144;28;5694;-74
2022/11/01 07:50:56;;;;;;;;;;;;;;;18.12;75.85;97437.25;4232856;27;5685;-74
2022/11/01 07:53:02;;;;;;;;;;;;;;;18.12;75.72;97454.16;4227035;28;5654;-75
2022/11/01 07:55:06;;;;;;;;;;;;;;;18.12;75.69;97446.13;4228004;28;5696;-74
2022/11/01 07:57:09;;;;;;;;;;;;;;;18.13;75.70;97449.63;4244176;27;5680;-74
2022/11/01 07:59:13;;;;;;;;;;;;;;;18.12;75.51;97448.81;4242823;27;5590;-75
2022/11/01 08:01:16;;;;;;;;;;;;;;;18.13;75.34;97460.31;4240663;27;5601;-74
2022/11/01 08:03:19;;;;;;;;;;;;;;;18.13;75.03;97461.16;4224074;27;5103;-75
2022/11/01 08:05:22;;;;;;;;;;;;;;;18.13;74.96;97463.81;4237724;27;5696;-75
2022/11/01 08:07:25;;;;;;;;;;;;;;;18.16;75.06;97467.91;4229842;28;5649;-74
2022/11/01 08:09:27;;;;;;;;;;;;;;;18.16;75.00;97466.03;4222115;28;5097;-75
2022/11/01 08:11:30;;;;;;;;;;;;;;;18.17;74.76;97469.53;4235325;28;5892;-75
2022/11/01 08:13:33;;;;;;;;;;;;;;;18.17;74.65;97472.22;4240377;27;5602;-75
2022/11/01 08:15:38;;;;;;;;;;;;;;;18.18;74.66;97463.13;4224835;27;6279;-75
2022/11/01 08:17:40;;;;;;;;;;;;;;;18.19;74.33;97467.44;4234882;27;5600;-74
2022/11/01 08:19:43;;;;;;;;;;;;;;;18.17;74.42;97466.84;4233926;27;5602;-74
2022/11/01 08:21:46;;;;;;;;;;;;;;;18.16;74.47;97473.25;4234937;27;5605;-75
2022/11/01 08:23:49;;;;;;;;;;;;;;;18.15;74.25;97471.63;4234369;27;5751;-75
2022/11/01 08:25:51;;;;;;;;;;;;;;;18.16;74.19;97478.59;4235467;27;5621;-74
2022/11/01 08:27:55;;;;;;;;;;;;;;;18.16;73.94;97470.56;4232494;27;5605;-74
2022/11/01 08:29:57;;;;;;;;;;;;;;;18.14;74.16;97476.16;4232285;28;5709;-74
2022/11/01 08:32:02;;;;;;;;;;;;;;;18.17;73.93;97469.53;4219172;27;5641;-75
2022/11/01 08:34:05;;;;;;;;;;;;;;;18.19;73.91;97470.13;4227205;27;5676;-74
2022/11/01 08:36:08;;;;;;;;;;;;;;;18.18;73.57;97468.47;4226209;27;5784;-74
2022/11/01 08:38:11;;;;;;;;;;;;;;;18.20;73.81;97471.75;4231633;27;5617;-75
2022/11/01 08:40:14;;;;;;;;;;;;;;;18.21;73.80;97478.72;4228633;27;5766;-75
2022/11/01 08:42:16;;;;;;;;;;;;;;;18.22;73.68;97475.81;4220863;27;5609;-74
2022/11/01 08:44:23;;;;;;;;;;;;;;;18.23;73.64;97465.94;4234420;27;5639;-74
2022/11/01 08:46:26;;;;;;;;;;;;;;;18.24;73.70;97472.94;4234544;28;5636;-74
2022/11/01 08:48:31;;;;;;;;;;;;;;;18.27;73.53;97475.16;4231234;27;5613;-74
2022/11/01 08:50:34;;;;;;;;;;;;;;;18.28;73.50;97474.94;4234843;28;5632;-74
2022/11/01 08:52:37;;;;;;;;;;;;;;;18.28;73.34;97479.47;4226179;27;5774;-74
2022/11/01 08:54:40;;;;;;;;;;;;;;;18.28;73.14;97476.81;4226879;27;5641;-74
2022/11/01 08:56:42;;;;;;;;;;;;;;;18.29;73.15;97481.94;4232340;27;5671;-74
2022/11/01 08:58:48;;;;;;;;;;;;;;;18.30;73.23;97488.09;4241510;27;5744;-75
2022/11/01 09:00:51;;;;;;;;;;;;;;;18.29;73.26;97479.25;4225884;27;5786;-74
2022/11/01 09:02:54;;;;;;;;;;;;;;;18.30;73.16;97477.38;4216627;28;5767;-73
2022/11/01 09:05:01;;;;;;;;;;;;;;;18.31;73.17;97485.19;4232422;27;5720;-73
2022/11/01 09:07:04;;;;;;;;;;;;;;;18.33;73.01;97491.13;4231371;27;5629;-73
2022/11/01 09:09:09;;;;;;;;;;;;;;;18.34;72.81;97486.59;4236755;27;5673;-73
2022/11/01 09:11:11;;;;;;;;;;;;;;;18.33;72.77;97488.44;4234318;28;5606;-74
2022/11/01 09:13:14;;;;;;;;;;;;;;;18.32;73.05;97480.66;4236547;27;5824;-74
2022/11/01 09:15:17;;;;;;;;;;;;;;;18.34;73.06;97490.09;4238898;27;5781;-74
2022/11/01 09:17:20;;;;;;;;;;;;;;;18.35;72.83;97485.56;4233430;27;5727;-74
2022/11/01 09:19:23;;;;;;;;;;;;;;;18.35;72.84;97498.97;4220507;27;5714;-73
2022/11/01 09:21:27;;;;;;;;;;;;;;;18.35;72.67;97496.28;4231580;27;6053;-75
2022/11/01 09:23:34;;;;;;;;;;;;;;;18.34;72.78;97499.97;4218229;28;5710;-74
2022/11/01 09:25:36;;;;;;;;;;;;;;;18.34;72.79;97491.94;4219742;27;5624;-74
2022/11/01 09:27:39;;;;;;;;;;;;;;;18.34;72.67;97495.44;4233552;27;5696;-74
2022/11/01 09:29:42;;;;;;;;;;;;;;;18.36;72.65;97500.59;4233669;27;5601;-74
2022/11/01 09:31:51;;;;;;;;;;;;;;;18.37;72.63;97494.19;4222173;27;5683;-74
2022/11/01 09:33:56;;;;;;;;;;;;;;;18.38;72.49;97490.47;4230846;27;5606;-74
2022/11/01 09:35:58;;;;;;;;;;;;;;;18.42;72.33;97488.16;4249875;27;5603;-74
2022/11/01 09:38:03;;;;;;;;;;;;;;;18.42;72.59;97491.66;4226492;27;5765;-73
2022/11/01 09:40:07;;;;;;;;;;;;;;;18.45;72.49;97501.88;4233805;28;5758;-74
2022/11/01 09:42:15;;;;;;;;;;;;;;;18.45;72.28;97501.88;4234164;28;5726;-74
2022/11/01 09:44:23;;;;;;;;;;;;;;;18.45;72.15;97503.75;4242164;27;6665;-75
2022/11/01 09:46:31;;;;;;;;;;;;;;;18.47;72.23;97507.03;4244302;27;5609;-74
2022/11/01 09:48:36;;;;;;;;;;;;;;;18.51;72.33;97505.53;4226229;27;5830;-74
2022/11/01 09:50:42;;;;;;;;;;;;;;;18.50;71.93;97504.72;4223115;27;5602;-74
2022/11/01 09:52:45;;;;;;;;;;;;;;;18.51;72.03;97501.00;4233292;27;5914;-74
2022/11/01 09:54:50;;;;;;;;;;;;;;;18.52;72.18;97505.31;4232592;27;5705;-73
2022/11/01 09:57:05;;;;;;;;;;;;;;;18.54;71.95;97500.53;4226393;27;5802;-73
2022/11/01 09:59:19;;;;;;;;;;;;;;;18.54;71.95;97495.19;4233226;27;5609;-73
2022/11/01 10:01:43;;;;;;;;;;;;;;;18.53;72.01;97498.91;4238930;27;5842;-73
2022/11/01 10:04:00;;;;;;;;;;;;;;;18.54;71.63;97505.91;4223578;28;6294;-73
2022/11/01 10:06:14;;;;;;;;;;;;;;;18.55;72.05;97504.03;4225089;27;5695;-72
2022/11/01 10:08:31;;;;;;;;;;;;;;;18.54;71.56;97503.22;4229868;27;5632;-73
2022/11/01 10:10:42;;;;;;;;;;;;;;;18.56;71.72;97509.16;4232628;27;5601;-73
2022/11/01 10:13:03;;;;;;;;;;;;;;;18.59;71.63;97503.38;4233323;28;6429;-72
2022/11/01 10:15:20;;;;;;;;;;;;;;;18.61;71.44;97506.63;4233429;28;5606;-73
2022/11/01 10:17:34;;;;;;;;;;;;;;;18.62;71.65;97499.41;4233921;28;5593;-72
2022/11/01 10:19:38;;;;;;;;;;;;;;;18.61;71.42;97500.47;4233741;28;5605;-73
2022/11/01 10:21:44;;;;;;;;;;;;;;;18.63;71.33;97501.88;4233082;27;6324;-73
2022/11/01 10:23:50;;;;;;;;;;;;;;;18.65;71.60;97503.53;4233438;28;5721;-73
2022/11/01 10:25:54;;;;;;;;;;;;;;;18.65;71.30;97500.84;4233446;28;5643;-73
2022/11/01 10:28:05;;;;;;;;;;;;;;;18.65;71.12;97503.53;4233458;27;5579;-73
2022/11/01 10:30:14;;;;;;;;;;;;;;;18.67;71.25;97509.47;4228600;27;5600;-73
2022/11/01 10:32:27;;;;;;;;;;;;;;;18.67;71.12;97506.78;4233783;28;5645;-71
2022/11/01 10:34:34;;;;;;;;;;;;;;;18.70;71.34;97509.03;4219823;28;5650;-72
2022/11/01 10:36:43;;;;;;;;;;;;;;;18.71;71.25;97506.13;4233918;28;5640;-73
2022/11/01 10:38:49;;;;;;;;;;;;;;;18.72;70.92;97505.09;4232273;27;5594;-72
2022/11/01 10:41:22;;;;;;;;;;;;;;;18.72;70.99;97513.13;4225288;27;5612;-73
2022/11/01 10:43:26;;;;;;;;;;;;;;;18.74;70.78;97512.88;4229633;27;5652;-72
2022/11/01 10:45:30;;;;;;;;;;;;;;;18.74;70.85;97504.84;4233868;28;5654;-72
2022/11/01 10:47:33;;;;;;;;;;;;;;;18.73;70.57;97514.75;4233752;28;5060;-72
2022/11/01 10:49:38;;;;;;;;;;;;;;;18.73;71.06;97513.94;4233622;28;5643;-72
2022/11/01 10:52:06;;;;;;;;;;;;;;;18.74;71.10;97499.50;4218008;28;5605;-72
2022/11/01 10:54:17;;;;;;;;;;;;;;;18.76;70.98;97502.75;4234409;27;5742;-73
2022/11/01 10:56:26;;;;;;;;;;;;;;;18.76;70.86;97505.44;4244575;27;5590;-73
2022/11/01 10:58:34;;;;;;;;;;;;;;;18.77;70.87;97507.06;4239900;27;5844;-73
2022/11/01 11:00:40;;;;;;;;;;;;;;;18.77;70.83;97507.06;4237728;27;5594;-73
2022/11/01 11:02:47;;;;;;;;;;;;;;;18.75;70.88;97506.47;4236507;28;5699;-73
2022/11/01 11:04:51;;;;;;;;;;;;;;;18.76;70.94;97510.78;4235123;27;5582;-73
2022/11/01 11:06:55;;;;;;;;;;;;;;;18.78;70.87;97508.69;4235443;27;6376;-74
2022/11/01 11:08:58;;;;;;;;;;;;;;;18.78;70.94;97500.66;4234315;27;5726;-72
2022/11/01 11:11:04;;;;;;;;;;;;;;;18.79;70.49;97513.00;4214878;28;5631;-72
2022/11/01 11:13:09;;;;;;;;;;;;;;;18.78;70.74;97511.38;4233366;27;5597;-73
2022/11/01 11:15:18;;;;;;;;;;;;;;;18.76;70.53;97506.25;4236707;28;5728;-73
2022/11/01 11:17:42;;;;;;;;;;;;;;;18.73;70.66;97503.22;4236170;27;5959;-73
2022/11/01 11:19:46;;;;;;;;;;;;;;;18.70;70.63;97507.19;4235438;27;5712;-73
2022/11/01 11:21:52;;;;;;;;;;;;;;;18.70;70.62;97509.03;4235309;27;6535;-72
2022/11/01 11:23:55;;;;;;;;;;;;;;;18.73;70.63;97503.22;4219752;28;5612;-72
2022/11/01 11:26:03;;;;;;;;;;;;;;;18.73;70.64;97497.88;4219285;28;6420;-73
2022/11/01 11:28:22;;;;;;;;;;;;;;;18.73;70.40;97497.88;4234229;27;5680;-72
2022/11/01 11:30:31;;;;;;;;;;;;;;;18.73;70.29;97500.53;4236862;28;5733;-73
2022/11/01 11:32:37;;;;;;;;;;;;;;;18.72;70.27;97490.88;4223259;27;5605;-72
2022/11/01 11:34:41;;;;;;;;;;;;;;;18.74;70.32;97484.25;4221820;27;5754;-72
2022/11/01 11:36:46;;;;;;;;;;;;;;;18.77;70.09;97477.59;4236688;28;5593;-72
2022/11/01 11:38:50;;;;;;;;;;;;;;;18.78;70.39;97479.22;4236489;28;6276;-72
2022/11/01 11:40:53;;;;;;;;;;;;;;;18.79;69.88;97483.53;4236202;28;5601;-73
2022/11/01 11:43:24;;;;;;;;;;;;;;;18.78;70.00;97473.88;4235678;27;5716;-73
2022/11/01 11:45:29;;;;;;;;;;;;;;;18.77;70.07;97473.06;4228238;27;5618;-73
2022/11/01 11:47:36;;;;;;;;;;;;;;;18.82;70.09;97475.88;4236629;28;5695;-73
2022/11/01 11:49:40;;;;;;;;;;;;;;;18.84;70.12;97481.00;4235839;27;5613;-73
2022/11/01 11:51:46;;;;;;;;;;;;;;;18.86;69.84;97478.91;4236293;28;5602;-73
2022/11/01 11:54:21;;;;;;;;;;;;;;;18.88;69.80;97469.59;4237328;27;5608;-73
2022/11/01 11:56:24;;;;;;;;;;;;;;;18.90;69.72;97480.06;4235247;27;5742;-73
2022/11/01 11:58:33;;;;;;;;;;;;;;;18.91;69.79;97479.03;4236389;28;5581;-73
2022/11/01 12:00:38;;;;;;;;;;;;;;;18.90;69.68;97477.41;4236281;28;6286;-73
2022/11/01 12:02:41;;;;;;;;;;;;;;;18.90;69.73;97470.19;4236889;27;5593;-73
2022/11/01 12:04:48;;;;;;;;;;;;;;;18.90;69.64;97472.03;4243237;27;5618;-73
2022/11/01 12:06:50;;;;;;;;;;;;;;;18.91;69.51;97473.66;4234941;28;5594;-73
2022/11/01 12:08:55;;;;;;;;;;;;;;;18.93;69.54;97471.59;4243578;27;5928;-73
2022/11/01 12:10:58;;;;;;;;;;;;;;;18.94;69.70;97467.88;4235602;28;7659;-73
2022/11/01 12:13:04;;;;;;;;;;;;;;;18.95;69.73;97466.81;4239874;27;5320;-73
2022/11/01 12:15:27;;;;;;;;;;;;;;;18.95;69.66;97466.81;4243791;27;7659;-72
2022/11/01 12:17:33;;;;;;;;;;;;;;;18.95;69.50;97466.81;4244501;27;5617;-72
2022/11/01 12:19:36;;;;;;;;;;;;;;;18.95;69.57;97464.16;4243247;27;5609;-73
2022/11/01 12:21:43;;;;;;;;;;;;;;;18.96;69.35;97464.97;4240124;27;5574;-74
2022/11/01 12:23:48;;;;;;;;;;;;;;;18.96;69.29;97465.78;4221782;28;6313;-74
2022/11/01 12:25:51;;;;;;;;;;;;;;;18.96;69.28;97460.41;4226619;27;5735;-73
2022/11/01 12:28:00;;;;;;;;;;;;;;;18.96;69.43;97452.38;4235468;27;6265;-73
2022/11/01 12:30:09;;;;;;;;;;;;;;;18.98;69.10;97461.00;4219533;28;5604;-74
2022/11/01 12:32:17;;;;;;;;;;;;;;;18.94;69.22;97456.34;4235801;28;5594;-74
2022/11/01 12:34:24;;;;;;;;;;;;;;;18.93;69.22;97452.03;4235032;27;5823;-73
2022/11/01 12:36:34;;;;;;;;;;;;;;;18.94;69.16;97459.84;4232775;28;5695;-73
2022/11/01 12:38:43;;;;;;;;;;;;;;;18.94;69.30;97457.16;4230590;28;5719;-73
2022/11/01 12:40:48;;;;;;;;;;;;;;;18.96;69.01;97457.75;4233125;28;6654;-73
2022/11/01 12:42:56;;;;;;;;;;;;;;;18.97;69.09;97450.53;4243011;27;5586;-73
2022/11/01 12:45:05;;;;;;;;;;;;;;;18.97;68.92;97445.97;4243850;27;5597;-73
2022/11/01 12:47:16;;;;;;;;;;;;;;;18.97;68.80;97445.97;4236491;27;5695;-73
2022/11/01 12:49:28;;;;;;;;;;;;;;;18.96;68.96;97438.97;4252446;27;5667;-73
2022/11/01 12:51:36;;;;;;;;;;;;;;;18.94;68.86;97435.72;4239145;27;5612;-73
2022/11/01 12:53:43;;;;;;;;;;;;;;;18.95;68.90;97441.91;4235182;28;5617;-73
2022/11/01 12:55:46;;;;;;;;;;;;;;;18.93;68.92;97431.41;4234097;27;5613;-73
2022/11/01 12:57:50;;;;;;;;;;;;;;;18.96;68.77;97432.81;4235260;28;5606;-73
2022/11/01 12:59:53;;;;;;;;;;;;;;;18.97;68.86;97423.72;4242971;27;6271;-73
2022/11/01 13:02:04;;;;;;;;;;;;;;;18.97;68.66;97419.19;4236321;27;7324;-73
2022/11/01 13:04:19;;;;;;;;;;;;;;;19.00;68.87;97417.91;4238059;27;5626;-73
2022/11/01 13:06:44;;;;;;;;;;;;;;;19.03;68.41;97425.50;4252166;27;5771;-73
2022/11/01 13:08:56;;;;;;;;;;;;;;;19.04;68.66;97425.25;4235405;27;5593;-73
2022/11/01 13:11:13;;;;;;;;;;;;;;;19.04;68.55;97419.91;4227788;28;5820;-78
2022/11/01 13:13:25;;;;;;;;;;;;;;;19.05;68.46;97412.69;4224904;27;5604;-68
2022/11/01 13:15:35;;;;;;;;;;;;;;;19.03;68.16;97429.00;4233797;27;5608;-68
2022/11/01 13:17:43;;;;;;;;;;;;;;;19.01;68.22;97425.69;4226858;27;5778;-68
2022/11/01 13:19:57;;;;;;;;;;;;;;;19.02;68.26;97432.69;4231462;28;5586;-69
2022/11/01 13:22:06;;;;;;;;;;;;;;;19.01;68.32;97417.66;4225749;28;5590;-66
2022/11/01 13:24:16;;;;;;;;;;;;;;;19.01;68.11;97424.88;4234311;27;5662;-72
2022/11/01 13:26:24;;;;;;;;;;;;;;;19.00;68.19;97418.72;4233656;27;5602;-66
2022/11/01 13:28:43;;;;;;;;;;;;;;;18.99;68.44;97422.44;4234000;27;5602;-72
2022/11/01 13:30:55;;;;;;;;;;;;;;;18.99;68.29;97417.09;4232325;27;5617;-69
2022/11/01 13:33:04;;;;;;;;;;;;;;;19.00;68.45;97415.22;4234001;28;5724;-69
2022/11/01 13:35:30;;;;;;;;;;;;;;;19.01;68.31;97409.63;4231947;27;5920;-62
2022/11/01 13:37:42;;;;;;;;;;;;;;;19.02;68.30;97415.78;4225630;27;5652;-63
2022/11/01 13:39:58;;;;;;;;;;;;;;;19.02;68.00;97416.59;4230719;27;5608;-62
2022/11/01 13:42:07;;;;;;;;;;;;;;;19.01;68.13;97412.31;4224676;27;5601;-65
2022/11/01 13:44:13;;;;;;;;;;;;;;;19.02;68.30;97421.16;4234029;28;5816;-61
2022/11/01 13:46:55;;;;;;;;;;;;;;;19.02;68.19;97416.59;4231236;27;6394;-67
2022/11/01 13:49:19;;;;;;;;;;;;;;;19.03;67.95;97406.75;4214347;27;5684;-61
2022/11/01 13:51:36;;;;;;;;;;;;;;;19.02;68.21;97413.94;4228527;27;5071;-73
2022/11/01 13:53:44;;;;;;;;;;;;;;;19.03;68.28;97410.22;4229748;27;5729;-63
2022/11/01 13:55:54;;;;;;;;;;;;;;;19.01;68.00;97409.63;4232881;27;5609;-65
2022/11/01 13:57:57;;;;;;;;;;;;;;;19.03;67.96;97412.09;4233842;28;5643;-62
2022/11/01 14:00:03;;;;;;;;;;;;;;;19.03;68.09;97410.22;4225567;28;5593;-62
2022/11/01 14:02:55;;;;;;;;;;;;;;;19.02;67.79;97408.56;4232099;28;5601;-68
2022/11/01 14:04:59;;;;;;;;;;;;;;;18.99;68.05;97395.66;4233638;28;5682;-67
2022/11/01 14:07:14;;;;;;;;;;;;;;;18.98;67.90;97398.56;4230203;27;7099;-67
2022/11/01 14:09:29;;;;;;;;;;;;;;;18.94;67.80;97398.22;4227481;27;5753;-69
2022/11/01 14:11:47;;;;;;;;;;;;;;;18.94;68.06;97395.53;4231318;28;5731;-65
2022/11/01 14:13:50;;;;;;;;;;;;;;;18.95;67.93;97399.03;4233601;28;5686;-63
2022/11/01 14:16:27;;;;;;;;;;;;;;;18.93;67.71;97393.09;4233684;28;5597;-65
2022/11/01 14:19:09;;;;;;;;;;;;;;;18.93;68.03;97395.78;4222825;27;5586;-63
2022/11/01 14:21:30;;;;;;;;;;;;;;;18.93;67.67;97390.41;4228336;28;5729;-68
2022/11/01 14:23:58;;;;;;;;;;;;;;;18.92;67.76;97394.97;4229015;28;5684;-66
2022/11/01 14:26:34;;;;;;;;;;;;;;;18.92;68.02;97399.50;4220758;27;5585;-64
2022/11/01 14:28:43;;;;;;;;;;;;;;;18.92;67.63;97396.81;4238549;27;5972;-63
2022/11/01 14:30:49;;;;;;;;;;;;;;;18.93;67.61;97403.81;4225645;27;5593;-68
2022/11/01 14:32:55;;;;;;;;;;;;;;;18.92;67.59;97400.31;4237108;27;5699;-72
2022/11/01 14:35:05;;;;;;;;;;;;;;;18.91;67.52;97395.97;4237248;28;5680;-72
2022/11/01 14:37:22;;;;;;;;;;;;;;;18.88;67.55;97397.25;4227013;28;5104;-65
2022/11/01 14:39:34;;;;;;;;;;;;;;;18.87;67.64;97397.50;4230738;27;5860;-64
2022/11/01 14:41:41;;;;;;;;;;;;;;;18.86;67.56;97399.38;4233417;27;5693;-65
2022/11/01 14:43:47;;;;;;;;;;;;;;;18.87;67.58;97392.97;4236644;28;5605;-64
2022/11/01 14:45:56;;;;;;;;;;;;;;;18.87;67.43;97395.63;4234006;27;5620;-61
2022/11/01 14:48:03;;;;;;;;;;;;;;;18.86;67.63;97402.03;4224407;27;5706;-62
2022/11/01 14:50:16;;;;;;;;;;;;;;;18.85;67.77;97403.09;4229576;28;6331;-62
2022/11/01 14:52:26;;;;;;;;;;;;;;;18.88;67.39;97409.84;4222400;28;5863;-62
2022/11/01 14:54:38;;;;;;;;;;;;;;;18.87;67.60;97405.53;4235704;27;5601;-62
2022/11/01 14:56:47;;;;;;;;;;;;;;;18.87;67.60;97403.66;4234173;27;5688;-61
2022/11/01 14:58:50;;;;;;;;;;;;;;;18.87;67.48;97405.53;4236516;28;5087;-61
2022/11/01 15:00:55;;;;;;;;;;;;;;;18.86;67.57;97395.88;4233237;27;5616;-61
2022/11/01 15:03:00;;;;;;;;;;;;;;;18.85;67.28;97402.28;4236182;27;5618;-62
2022/11/01 15:05:03;;;;;;;;;;;;;;;18.84;67.49;97398.78;4236360;27;5700;-63
2022/11/01 15:07:18;;;;;;;;;;;;;;;18.84;67.50;97392.63;4235032;27;5609;-63
2022/11/01 15:09:23;;;;;;;;;;;;;;;18.82;67.65;97394.72;4236215;27;5593;-64
2022/11/01 15:11:30;;;;;;;;;;;;;;;18.81;67.38;97395.75;4232881;27;5606;-63
2022/11/01 15:13:37;;;;;;;;;;;;;;;18.82;67.54;97395.53;4236190;27;5767;-64
2022/11/01 15:15:40;;;;;;;;;;;;;;;18.80;67.47;97396.78;4234399;27;5601;-64
2022/11/01 15:17:50;;;;;;;;;;;;;;;18.80;67.68;97388.75;4230630;27;5711;-64
2022/11/01 15:19:56;;;;;;;;;;;;;;;18.79;67.71;97387.13;4235042;28;5585;-64
2022/11/01 15:22:02;;;;;;;;;;;;;;;18.78;67.58;97397.00;4233819;27;5676;-63
2022/11/01 15:24:05;;;;;;;;;;;;;;;18.77;67.82;97398.06;4221652;27;5755;-62
2022/11/01 15:26:11;;;;;;;;;;;;;;;18.77;67.48;97391.88;4222460;27;5755;-63
2022/11/01 15:28:22;;;;;;;;;;;;;;;18.75;67.88;97389.44;4224949;27;5648;-65
2022/11/01 15:30:29;;;;;;;;;;;;;;;18.73;67.72;97386.19;4232869;27;5593;-72
2022/11/01 15:32:34;;;;;;;;;;;;;;;18.73;67.68;97388.06;4239153;27;5676;-64
2022/11/01 15:34:37;;;;;;;;;;;;;;;18.72;67.89;97389.09;4236984;27;5594;-63
2022/11/01 15:36:41;;;;;;;;;;;;;;;18.72;67.56;97399.81;4240592;27;5594;-62
2022/11/01 15:38:50;;;;;;;;;;;;;;;18.69;68.00;97386.84;4244473;27;5590;-65
2022/11/01 15:40:53;;;;;;;;;;;;;;;18.68;67.94;97386.03;4237676;27;5685;-65
2022/11/01 15:42:57;;;;;;;;;;;;;;;18.69;67.94;97397.56;4240955;27;6743;-66
2022/11/01 15:45:19;;;;;;;;;;;;;;;18.67;68.03;97394.31;4228616;27;5782;-64
2022/11/01 15:47:25;;;;;;;;;;;;;;;18.65;67.71;97399.09;4230659;27;5696;-63
2022/11/01 15:49:33;;;;;;;;;;;;;;;18.63;67.83;97392.06;4229623;27;5207;-65
2022/11/01 15:51:40;;;;;;;;;;;;;;;18.63;67.90;97400.09;4220727;27;5706;-65
2022/11/01 15:53:43;;;;;;;;;;;;;;;18.63;67.81;97402.78;4224431;27;5918;-62
2022/11/01 15:55:51;;;;;;;;;;;;;;;18.62;67.79;97411.06;4222959;27;5779;-62
2022/11/01 15:57:59;;;;;;;;;;;;;;;18.60;67.94;97411.28;4226732;27;5706;-63
2022/11/01 16:00:06;;;;;;;;;;;;;;;18.59;67.93;97406.97;4221864;27;5604;-64
2022/11/01 16:02:19;;;;;;;;;;;;;;;18.59;68.07;97404.28;4226623;27;5760;-63
2022/11/01 16:04:24;;;;;;;;;;;;;;;18.58;68.00;97410.69;4223491;27;5582;-63
2022/11/01 16:06:35;;;;;;;;;;;;;;;18.59;67.69;97415.00;4228548;27;5585;-66
2022/11/01 16:08:42;;;;;;;;;;;;;;;18.57;68.11;97406.41;4207626;28;5719;-65
2022/11/01 16:10:45;;;;;;;;;;;;;;;18.56;67.90;97395.88;4228812;27;6378;-65
2022/11/01 16:12:49;;;;;;;;;;;;;;;18.55;68.04;97405.78;4230796;27;5806;-66
2022/11/01 16:14:55;;;;;;;;;;;;;;;18.54;67.90;97397.97;4229812;27;5636;-64
2022/11/01 16:17:00;;;;;;;;;;;;;;;18.54;67.97;97400.66;4225096;27;5739;-76
2022/11/01 16:19:32;;;;;;;;;;;;;;;18.51;68.00;97407.28;4228664;27;5601;-79
2022/11/01 16:21:36;;;;;;;;;;;;;;;18.52;67.74;97400.06;4207466;28;5758;-65
2022/11/01 16:23:50;;;;;;;;;;;;;;;18.49;67.81;97395.19;4229311;27;5848;-70
2022/11/01 16:26:01;;;;;;;;;;;;;;;18.49;67.85;97405.91;4227661;27;5151;-70
2022/11/01 16:28:06;;;;;;;;;;;;;;;18.48;68.15;97402.41;4230362;27;6298;-71
2022/11/01 16:30:41;;;;;;;;;;;;;;;18.48;68.16;97414.97;4228472;28;6075;-71
2022/11/01 16:32:44;;;;;;;;;;;;;;;18.48;68.17;97409.63;4228795;27;7671;-71
2022/11/01 16:34:49;;;;;;;;;;;;;;;18.46;68.02;97412.53;4236937;27;5750;-74
2022/11/01 16:36:52;;;;;;;;;;;;;;;18.46;68.07;97417.88;4233548;27;5729;-69
2022/11/01 16:38:55;;;;;;;;;;;;;;;18.46;68.27;97415.22;4231322;27;5791;-70
2022/11/01 16:41:00;;;;;;;;;;;;;;;18.46;68.11;97425.06;4229038;27;5694;-70
2022/11/01 16:43:03;;;;;;;;;;;;;;;18.45;68.01;97429.59;4224373;27;5736;-69
2022/11/01 16:45:11;;;;;;;;;;;;;;;18.46;68.12;97417.03;4222769;27;5829;-72
2022/11/01 16:47:16;;;;;;;;;;;;;;;18.42;68.03;97422.03;4232990;27;5597;-72
2022/11/01 16:49:21;;;;;;;;;;;;;;;18.40;68.09;97421.47;4225982;27;5773;-72
2022/11/01 16:51:27;;;;;;;;;;;;;;;18.41;68.18;97430.31;4229210;27;5657;-72
2022/11/01 16:53:30;;;;;;;;;;;;;;;18.41;68.12;97433.78;4228115;27;5103;-73
2022/11/01 16:55:33;;;;;;;;;;;;;;;18.40;68.28;97432.16;4224080;28;5862;-71
2022/11/01 16:57:40;;;;;;;;;;;;;;;18.40;68.07;97429.50;4234056;27;6268;-71
2022/11/01 16:59:43;;;;;;;;;;;;;;;18.38;68.16;97431.56;4225568;27;5629;-71
2022/11/01 17:01:46;;;;;;;;;;;;;;;18.38;67.82;97442.28;4229950;27;5567;-72
2022/11/01 17:03:51;;;;;;;;;;;;;;;18.38;68.26;97444.97;4230915;27;5680;-72
2022/11/01 17:05:54;;;;;;;;;;;;;;;18.37;68.09;97446.00;4230015;27;5751;-72
2022/11/01 17:07:59;;;;;;;;;;;;;;;18.36;68.30;97443.56;4228727;28;5707;-71
2022/11/01 17:10:11;;;;;;;;;;;;;;;18.36;68.20;97452.41;4231649;27;5617;-71
2022/11/01 17:12:14;;;;;;;;;;;;;;;18.36;68.26;97460.44;4227299;27;5727;-74
2022/11/01 17:14:17;;;;;;;;;;;;;;;18.34;68.24;97462.50;4229712;27;5817;-74
2022/11/01 17:16:23;;;;;;;;;;;;;;;18.34;68.22;97462.50;4225032;27;5819;-74
2022/11/01 17:18:30;;;;;;;;;;;;;;;18.34;68.12;97462.50;4225599;27;5586;-72
2022/11/01 17:20:32;;;;;;;;;;;;;;;18.34;68.12;97463.31;4226509;28;5698;-73
2022/11/01 17:22:37;;;;;;;;;;;;;;;18.34;68.28;97467.84;4230248;28;5593;-73
2022/11/01 17:24:41;;;;;;;;;;;;;;;18.34;68.27;97471.34;4229022;27;5590;-73
2022/11/01 17:26:44;;;;;;;;;;;;;;;18.33;67.93;97471.56;4229392;27;5091;-72
2022/11/01 17:28:47;;;;;;;;;;;;;;;18.31;68.11;97471.00;4233892;27;5589;-73
2022/11/01 17:30:54;;;;;;;;;;;;;;;18.31;68.06;97473.66;4227941;27;5729;-73
2022/11/01 17:32:57;;;;;;;;;;;;;;;18.30;68.04;97472.84;4228150;27;5688;-73